Aktualne dane pomiarowe

Uwaga, wersja testowa! Automatyczne pobieranie danych za pomocą narzędzi lub skryptów to umożliwiających jest zabronione.

Dane meteo z obszaru Polski uzyskane na podstawie depesz SYNOP pobieranych co godzinę z NWS. Najedź myszką na symbol przedstawiony w tabeli, aby uzyskać informacje co do jego znaczenia. Prosimy pamiętać, że to testowa wersja strony, która jeszcze nie jest ukończona. Stworzono również jest krótki FAQ dotyczący korzystania z tej podstrony Anomalie temperatury w chwili obecnej odniesione są do okresu referencyjnego 1951-2016. Okres ten będzie później zmieniony na 1981-2010. Kliknij ikonę aby pobrać plik CSV. Kliknij ikonę aby wygenerować mapę synoptyczną dla danego terminu.

Wybierz Datę:    

        

Kłodzko (12520)

Dane terminowe dla wybranej stacji. Kliknij datę, aby otrzymać dane z tego terminu dla wszystkich stacji.

TemperaturaZachmurzenieWiatrCiśnienieOpadyPogoda
 Data t td wb tx tn tg rh  Nt Nl Cl Cm Ch ws wd g1 g2 wx mslp ppp ch 24h 12h t ww ww w1 w2  
2019-06-22 23:00:00 17.8 10.7 13.4--- 6335.0wxwxwxwx2wx--21019.8 977.9 0.6---wx---
2019-06-22 22:00:00 18.6 10.4 13.6--- 5920.0wxwxwx3wx--31019.9 978.1 1.3---------
2019-06-22 21:00:00 18.8 10.9 13.9--- 6050.0wxwxwx2wx-821019.5 977.8 0.7---------
2019-06-22 20:00:00 19.4 10.9 14.2--- 5840.0wxwxwxwxwx3wx-831018.9 977.3 0.4---------
2019-06-22 19:00:00 19.9 11.9 14.9--- 6040.0wxwxwxwxwx3wx-831018.3 976.8 -0.7---------
2019-06-22 18:00:00 21.5 11.8 15.5 23.5 17.3- 5445.0wxwxwxwxwx3wx-931018.4 977.1 -0.8- 0.012------
2019-06-22 17:00:00 22.3 12.3 16.1--- 5345.0wxwxwxwxwx3wx-931018.1 976.9 -1.2---------
2019-06-22 16:00:00 22.9 12.2 16.3--- 5145.0wxwxwxwxwx3wx-931018.6 977.5 -1.0---------
2019-06-22 15:00:00 23.1 12.7 16.7--- 5245.0wxwxwxwxwx4wx-941019.0 977.9 -1.5---------
2019-06-22 14:00:00 23.4 13.0 16.9--- 5245.0wxwxwxwx4wx9941019.2 978.1 -1.9---------
2019-06-22 13:00:00 23.1 12.7 16.7--- 5240.0wxwxwxwxwx3wx8831019.7 978.5 -1.7---------
2019-06-22 12:00:00 21.9 12.7 16.2--- 5640.0wxwxwxwx4wx---1020.8 979.4 -0.7---------
2019-06-22 11:00:00 21.6 15.0 17.3--- 6625.0wxwxwxwxwx3wx---1021.4 980.0 -0.2---------
2019-06-22 10:00:00 20.7 15.9 17.4--- 7425.0wxwxwxwx3wx--31021.8 980.2 0.1---------
2019-06-22 09:00:00 19.5 15.8 17.0--- 7928.0wxwxwxwxwx3wx--31021.8 980.1 0.3---------
2019-06-22 08:00:00 19.5 15.8 17.0--- 7925.0wxwxwxwx3wx--31021.9 980.2 0.5---------
2019-06-22 07:00:00 18.5 16.1 16.8--- 8612.0wxwxwxwx2wx--21022.0 980.1 0.7---------
2019-06-22 06:00:00 17.3 16.2 16.5 21.5 12.9 12 938.0wxwxwxwxwx2wx--21021.9 979.8 0.8 2.7 0.012wx-w1- 4.4
2019-06-22 05:00:00 16.3 15.8 15.9--- 976.0wxwxwx1wx--11021.9 979.7 1.1---wx---
2019-06-22 04:00:00 14.7 14.4 14.5--- 982.5wxwxwx1wx--11021.8 979.4 1.2---wx---
2019-06-22 03:00:00 13.0 12.8 12.8--- 990.9wxwxwxwx2wx--21021.7 979.0 0.9---wx-w1--
2019-06-22 02:00:00 13.7 13.7 13.7--- 1002.4wxwxwxwxwx2wx--21021.1 978.6 0.8---wx-w1--
2019-06-22 01:00:00 14.3 14.1 14.1--- 990.9wx-wxwx0---01020.6 978.2 0.5---wx---
2019-06-22 00:00:00 15.2 14.9 15.0--- 987.0wx-wxwx0---01020.4 978.1 0.6- 0.06wx---
2019-06-21 23:00:00 15.1 14.1 14.4--- 946.0wx-wxwx1wx--11020.1 977.8 0.8---wx---
2019-06-21 22:00:00 15.9 15.4 15.5--- 9710.0wx-wx1wx--11019.9 977.7 1.7---------
2019-06-21 21:00:00 17.3 15.6 16.1--- 9015.0wxwxwxwxwx1wx--11019.5 977.5 2.0---------
2019-06-21 20:00:00 19.2 16.6 17.4--- 8535.0wxwxwxwxwx2wx--21018.7 977.0 1.7---------
2019-06-21 19:00:00 20.2 17.4 18.2--- 8440.0wxwxwxwxwx1wx--11017.5 976.0 0.9---------
2019-06-21 18:00:00 21.5 18.3 19.2 23.4 17.1- 8245.0wxwxwxwxwx1wx--11016.8 975.5 0.6- 3.012wx-w1--
2019-06-21 17:00:00 22.2 16.7 18.5--- 7135.0wxwxwxwxwx1wx---1016.4 975.3 0.6---wx---
2019-06-21 16:00:00 21.7 17.1 18.5--- 7545.0wxwxwxwxwx1wx--11016.3 975.1 0.0---wx---
2019-06-21 15:00:00 23.1 16.2 18.5--- 6540.0wxwxwxwxwx0----1015.9 974.9 -0.7---------
2019-06-21 14:00:00 22.9 17.4 19.1--- 7130.0wxwxwxwxwx1---11015.7 974.7 -1.2---------
2019-06-21 13:00:00 21.3 17.7 18.8--- 8030.0wxwxwxwx2wx--21016.4 975.1 -1.0---------
2019-06-21 12:00:00 20.8 17.2 18.3--- 8025.0wxwxwxwx2wx--21017.0 975.6 -0.1- 3.06wx-w1--
2019-06-21 11:00:00 19.8 16.1 17.2--- 7917.0wxwxwxwx1wx---1017.4 975.9 0.7---wx---
2019-06-21 10:00:00 18.7 16.5 17.1--- 8715.0wxwxwxwx1wx---1017.8 976.1 1.3---wx---
2019-06-21 09:00:00 18.3 17.3 17.6--- 946.0wxwxwx1wx--11017.4 975.7 1.2---wx-w1--
2019-06-21 08:00:00 18.1 16.8 17.2--- 9220.0wxwxwx1wx--11016.9 975.2 1.4---wx---
2019-06-21 07:00:00 17.7 16.9 17.1--- 9517.0wxwxwx1wx--11016.6 974.8 1.0---wx-w1--
2019-06-21 06:00:00 17.1 16.3 16.5 18.7 13.7 13 9512.0wxwxwxwx1wx--11016.4 974.5 0.6 2.3 2.012wx-w1w2- 7.5
2019-06-21 05:00:00 16.3 16.0 16.1--- 983.0wxwxwxwxwx2wx--21015.7 973.8 0.3---wx---
2019-06-21 04:00:00 15.3 15.0 15.1--- 980.9wxwxwxwxwx1wx--11015.9 973.8 0.7---wx-w1--
2019-06-21 03:00:00 14.6 14.4 14.4--- 992.5wxwxwx1wx--11016.1 973.9 1.3---wx-w1--
2019-06-21 02:00:00 14.7 14.5 14.5--- 993.0wxwxwxwxwx1wx--11015.7 973.5 1.5---wx---
2019-06-21 01:00:00 14.4 14.4 14.4--- 1000.9wxwxwxwxwx1---11015.3 973.1 0.9---wx-w1w2--
2019-06-21 00:00:00 14.0 13.8 13.8--- 990.4wx-wxwx2wx--21014.8 972.6 0.6- 0.06wx---
3.4 ms

 

Print Friendly, PDF & Email